Spokane, WA

10:54 PM PDT on September 22, 2014 (GMT -0700)
Fairchild Air Force Base | Change Station
CLOSE
Current Station
Airport
Location: Spokane Fairchild,
Elevation: 2461 ft
Nearby Weather Stations

Elev 2461 ft 47.62 °N, 117.66 °W | Updated 56 minutes ago

Mostly Cloudy
Mostly Cloudy
63 °F
Feels Like 63 °F
N
7
Wind Variable Wind from SSW

Today
High -- | Low -- °F
--% Chance of Precip.
Yesterday
High -- | Low -- °F
Precip. -- in
6:37 AM 6:48 PM
Waning Crescent, 1% visible
Pressure 29.92 in
Visibility 10.0 miles
Clouds Clear
Dew Point 51 °F
Humidity 64%
Rainfall 0.00 in
Snow Depth 0 in , 0 in , 0 in
UV 0 out of 12
Pollen 7.30 out of 12
PM2.5 Moderate
Flu Activity Not available.
METAR KSKA 230458Z AUTO 20006KT 10SM CLR 17/11 A2994 RMK AO2 SLP130 T01730105

More Conditions Fewer Conditions

Pressure 29.92 in
Visibility 10.0 miles
Clouds Clear
Dew Point 51 °F
Humidity 64%
Rainfall 0.00 in
Snow Depth 0 in , 0 in , 0 in
UV 0 out of 12
Pollen 7.30 out of 12
PM2.5 Moderate
Flu Activity Not available.
METAR KSKA 230458Z AUTO 20006KT 10SM CLR 17/11 A2994 RMK AO2 SLP130 T01730105

More Conditions Fewer Conditions

10-Day Weather Forecast

Almanac

Astronomy

Sep. 22, 2014 Rise Set
Actual Time 6:37 AM PDT 6:48 PM PDT
Civil Twilight 6:06 AM PDT 7:18 PM PDT
Nautical Twilight 5:30 AM PDT 7:54 PM PDT
Astronomical Twilight 4:52 AM PDT 8:32 PM PDT
Moon 5:06 AM PDT (9/22) 6:00 PM PDT (9/22)
Length of Visible Light 13h 12m
Length of Day
12h 10m
Tomorrow will be 3m 25s shorter.
Waning Crescent, 1% of the Moon is Illuminated
Sep 23
Waning Crescent
Sep 24
New
Oct 1
First Quarter
Oct 8
Full
Oct 15
Last Quarter

Yesterday's Extremes

State Highs State Lows

Community

WunderPhotos

Upload Photos

1,755,606 photos uploaded!

Nearby

Air Quality

  Air Quality AQ Index Pollutant
Yesterday Good
PM10
Yesterday Good
OZONE
Current Moderate
PM2.5
Monday Good
PM10
Monday Good
OZONE
Tuesday Good
PM10
Tuesday Good
OZONE

Snow Depth

Station Depth Elevation
Mount Gardner 0 in 3000 ft
Burnt Mountain 0 in 4200 ft
Stevens Pass 0 in 4070 ft
Fish Lake 0 in 3371 ft
Sourdough Gulch 0 in 4000 ft

Earthquake Activity

City Distance Mag. Time & Date
No recent earthquake activity has been reported nearby.
Minimum magnitude displayed is 2.5.

Coastal Water Temperatures

Place Temperature
No Stations Reporting

Nearby Weather Stations